Ruso, North Dakota
Current Conditions -  °F | °C
As of 9:54 PM on Saturday 24 Jan 2015 (Local Time) from KMOT Reporting Station
Haze Haze  
Wind Chill: -1°   Ceiling: 400
Heat Index: -1°   Visibility: 1.5mi
Dew Point: -2°   Wind: 0mph
Humidity: 89%   Direction: NA
Pressure: 29.79"   Gusts: NA
Location:  47.84°N, 100.93°W
Report Text: KMOT 250354Z 00000KT 1 1/2SM BR OVC004 M01/M02 A2979 RMK AO2 UPE10SNB0257E07 CIG 002V005 SLP107 P0000 T10061022
Loading
Personal Weather Stations






























Interactive Weather Map New forecast layout! Learn more

10-Day Weather Forecast

Advertisements
Track Severe Weather on mobile